Enter the Airport ICAO Code

Search by Airport or City

Current Weather

KCMH | Port Columbus International Airport

Columbus, Ohio, United States

Last Update 33 Minutes Ago

Clear Sky at Low Altitude

Temperature of 04 ºC

Light to Moderate Winds from West

Temperature

04 ºC

Dew Point Temperature

02 ºC Below Zero

Relative Humidity

64.89 %

Wind Direction

West (250º, Without Significant Variations)

Wind Velocity

17 km/h (09 kt)

Gusts

None

Visibility

Greater than 10 Miles

Sea Level Pressure

30.30 inHg (Inches of Mercury)

Layers of Clouds

None

METAR KCMH 022051Z 25009KT 10SM CLR 04/M02 A3030 RMK AO2 SLP266 T00391022 53000

Weather Forecast

KCMH | Port Columbus International Airport

Columbus, Ohio, United States

Forecast valid for the next 21 Hours

From now on it is expected:

Sky with Few Clouds

Light to Moderate Winds from West

In 4 hours it is expected the begining of:

Light Winds from SouthWest

In 15 hours it is expected the begining of:

Partly Cloudy Sky

Light to Moderate Winds from South

Maximum Temperature

No Data

Minimum Temperature

No Data

TAF KCMH 021730Z 0218/0318 26009KT P6SM FEW250 FM030100 22003KT P6SM FEW250 FM031200 20005KT P6SM SCT250